Hovedside
METAR-TAF:

METAR-TAF

Lufthavner :

Mataram, Indonesia

breddegrad: 08-45-29S, lengdegrad: 116-16-35E, høyde over havet: 97 m

Gjeldene værobservasjon

Denne rapporten ble laget for 35 minutter siden, klokken 20:30 UTC
Flau vind
Temperatur 23°C
Luftfuktighet 94%
Trykk 1012 hPa
Sikt: 7000 m
Spredte skyer i en høyde av 1600 ft

METAR: WADL 182030Z 00000KT 7000 SCT016 23/22 Q1012 NOSIG

Tid: 04:05 (21:05 UTC)

Varsel

Denne rapporten ble laget for 4 timer og 5 minutter siden, klokken 17:00 UTC
Varsel gyldig fra 18. klokken 18 UTC til 19. klokken 18 UTC
Vind kt fra Nord
Sikt: 7000 m
Spredte skyer i en høyde av 1600 ft
Midlertidig
fra 18. klokken 21 UTC til 18. klokken 23 UTC
Sikt: 2000 m
dis,

TAF: WADL 181700Z 1818/1918 00000KT 7000 SCT016 TEMPO 1821/1823 2000 BR

Værobservasjoner og værvarsel for over 4000 flyplasser (METAR- og TAF-rapporter).

Tilgjengelige stasjoner er representert av de røde og gule prikkene på kartet.

Hold musepekeren over prikken for å se navnet på stasjonen.

Klikk så for å se værobservasjoner og -varsler.

For å forandre kartet kan du klikke på den grønne knappen med svart kryss for å zoome inn, på den grønne knappen med strek for å zoome ut, eller på de grønne pilene for å se tilstøtende kart.


METAR-TAF: